Bob Baker Memorial Airport Kiana US
ICAO: PAIK
IATA:
Category: Medium
Scheduled Services:

Elevation: 166 ft
TransAlt. 18000 ft.

Airport Communications:
ANCHORAGE CNTR:119.2
CTAF:122.7

PAIK Zoom In..

If you have problems with the map follow the link
https://www.worldairports.se/pages/airport.php?
ICAO=PAIK

Runways:

(A) RW 06 length 3400 ft width 100 ft
---- / hdg 64

(B) RW 24 length 3400 ft width 100 ft
---- / hdg 244

Location; PAIK
Day. 16 / Time. 01.56 Zulu
* Altimeter: 29.76
* Temperature: -09° c. -15.8°f.
* Wind from: 050° Speed 05 kn.
Dewpoint: -12° c.
Visibility: 10 Statute Miles.
Clouds: Clear (automated report).

PAIK 160156Z AUTO 05005KT 10SM CLR M09/M12 A2976 RMK AO2 SLP084 T10941122 FZRANO


Wind From 050°
Speed 05 kn.

 
 
jpsmedia worldairports.se 2019   terms of use